createdAt,value
2023-02-25T00:00:43.974Z,6.75
2023-02-25T00:01:51.538Z,6.64
2023-02-25T00:02:44.970Z,6.70
2023-02-25T00:03:44.075Z,6.75
2023-02-25T00:04:43.935Z,6.82
2023-02-25T00:05:43.924Z,6.85
2023-02-25T00:06:43.913Z,6.93
2023-02-25T00:07:43.926Z,6.87
2023-02-25T00:08:43.889Z,6.93
2023-02-25T00:09:43.874Z,6.87
2023-02-25T00:10:43.874Z,6.88
2023-02-25T00:11:43.851Z,6.89
2023-02-25T00:12:43.848Z,6.87
2023-02-25T00:13:43.847Z,6.88
2023-02-25T00:14:43.834Z,6.81
2023-02-25T00:15:43.816Z,6.87
2023-02-25T00:16:43.840Z,6.87
2023-02-25T00:17:43.797Z,6.93
2023-02-25T00:18:43.803Z,6.92
2023-02-25T00:19:43.763Z,6.96
2023-02-25T00:20:43.759Z,6.88
2023-02-25T00:21:43.750Z,6.87
2023-02-25T00:22:43.753Z,6.81
2023-02-25T00:23:43.735Z,6.85
2023-02-25T00:24:43.748Z,6.85
2023-02-25T00:25:43.714Z,6.78
2023-02-25T00:26:43.703Z,6.81
2023-02-25T00:27:43.683Z,6.82
2023-02-25T00:28:43.662Z,6.89
2023-02-25T00:29:43.655Z,7.03
2023-02-25T00:30:43.769Z,7.07
2023-02-25T00:31:43.917Z,7.11
2023-02-25T00:32:43.662Z,6.95
2023-02-25T00:33:43.619Z,7.03
2023-02-25T00:34:43.614Z,7.03
2023-02-25T00:35:43.613Z,7.05
2023-02-25T00:36:43.624Z,7.10
2023-02-25T00:37:43.564Z,7.13
2023-02-25T00:38:43.573Z,6.93
2023-02-25T00:39:43.681Z,6.93
2023-02-25T00:40:43.546Z,6.97
2023-02-25T00:41:43.539Z,7.06
2023-02-25T00:42:43.522Z,7.10
2023-02-25T00:43:43.503Z,7.03
2023-02-25T00:44:43.497Z,7.00
2023-02-25T00:45:43.482Z,6.97
2023-02-25T00:46:43.534Z,6.93
2023-02-25T00:47:43.490Z,6.77
2023-02-25T00:48:43.454Z,6.78
2023-02-25T00:49:43.435Z,6.88
2023-02-25T00:50:43.441Z,6.96
2023-02-25T00:51:43.413Z,6.96
2023-02-25T00:52:43.429Z,6.92
2023-02-25T00:53:43.399Z,6.88
2023-02-25T00:54:43.390Z,6.89
2023-02-25T00:55:43.375Z,6.95
2023-02-25T00:56:43.391Z,6.96
2023-02-25T00:57:43.374Z,6.96
2023-02-25T00:58:43.372Z,6.89
2023-02-25T00:59:43.328Z,6.92
2023-02-25T01:00:51.394Z,6.89
2023-02-25T01:01:44.349Z,6.93
2023-02-25T01:02:43.390Z,6.87
2023-02-25T01:03:43.287Z,6.89
2023-02-25T01:04:43.302Z,6.97
2023-02-25T01:05:43.262Z,6.89
2023-02-25T01:06:43.265Z,6.95
2023-02-25T01:07:43.236Z,6.97
2023-02-25T01:08:43.240Z,6.99
2023-02-25T01:09:43.235Z,6.87
2023-02-25T01:10:43.248Z,6.88
2023-02-25T01:11:43.254Z,6.89
2023-02-25T01:12:43.183Z,6.99
2023-02-25T01:13:43.186Z,7.00
2023-02-25T01:14:43.163Z,6.93
2023-02-25T01:15:43.222Z,6.92
2023-02-25T01:16:43.168Z,6.93
2023-02-25T01:17:43.129Z,6.95
2023-02-25T01:18:43.137Z,6.92
2023-02-25T01:19:43.114Z,6.88
2023-02-25T01:20:43.104Z,6.95
2023-02-25T01:21:43.147Z,6.95
2023-02-25T01:22:43.093Z,6.96
2023-02-25T01:23:43.071Z,6.89
2023-02-25T01:24:43.050Z,6.95
2023-02-25T01:25:43.037Z,6.89
2023-02-25T01:26:43.040Z,6.81
2023-02-25T01:27:43.062Z,6.85
2023-02-25T01:28:43.009Z,6.85
2023-02-25T01:29:42.996Z,6.81
2023-02-25T01:30:43.010Z,6.79
2023-02-25T01:31:43.121Z,6.84
2023-02-25T01:32:43.147Z,6.87
2023-02-25T01:33:42.976Z,6.95
2023-02-25T01:34:42.960Z,6.96
2023-02-25T01:35:42.931Z,6.95
2023-02-25T01:36:42.917Z,6.88
2023-02-25T01:37:42.910Z,6.81
2023-02-25T01:38:42.899Z,6.85
2023-02-25T01:39:42.898Z,6.92
2023-02-25T01:40:42.891Z,6.92
2023-02-25T01:41:42.871Z,6.85
2023-02-25T01:42:42.859Z,6.85
2023-02-25T01:43:42.853Z,6.84
2023-02-25T01:44:42.871Z,6.82
2023-02-25T01:45:42.823Z,6.81
2023-02-25T01:46:42.856Z,6.87
2023-02-25T01:47:42.801Z,6.81
2023-02-25T01:48:42.798Z,6.79
2023-02-25T01:49:42.806Z,6.78
2023-02-25T01:50:42.791Z,6.79
2023-02-25T01:51:42.778Z,6.82
2023-02-25T01:52:42.740Z,6.78
2023-02-25T01:53:42.742Z,6.88
2023-02-25T01:54:42.732Z,6.81
2023-02-25T01:55:42.717Z,6.74
2023-02-25T01:56:42.735Z,6.82
2023-02-25T01:57:42.688Z,6.89
2023-02-25T01:58:42.684Z,6.87
2023-02-25T01:59:42.680Z,6.82
2023-02-25T02:00:42.687Z,6.92
2023-02-25T02:01:42.659Z,6.96
2023-02-25T02:02:42.724Z,7.03
2023-02-25T02:03:42.635Z,7.02
2023-02-25T02:04:42.620Z,6.95
2023-02-25T02:05:42.602Z,6.97
2023-02-25T02:06:42.617Z,6.92
2023-02-25T02:07:42.620Z,6.87
2023-02-25T02:08:42.592Z,6.85
2023-02-25T02:09:42.572Z,6.85
2023-02-25T02:10:42.556Z,6.75
2023-02-25T02:11:42.546Z,6.72
2023-02-25T02:12:42.531Z,6.78
2023-02-25T02:13:42.535Z,6.75
2023-02-25T02:14:42.572Z,6.72
2023-02-25T02:15:42.526Z,6.72
2023-02-25T02:16:42.531Z,6.70
2023-02-25T02:17:42.471Z,6.77
2023-02-25T02:18:42.481Z,6.70
2023-02-25T02:19:42.495Z,6.75
2023-02-25T02:20:42.441Z,6.69
2023-02-25T02:21:42.430Z,6.64
2023-02-25T02:22:42.422Z,6.75
2023-02-25T02:23:42.398Z,6.84
2023-02-25T02:24:42.400Z,6.78
2023-02-25T02:25:42.400Z,6.77
2023-02-25T02:26:42.385Z,6.74
2023-02-25T02:27:42.358Z,6.81
2023-02-25T02:28:42.352Z,6.81
2023-02-25T02:29:42.343Z,6.87
2023-02-25T02:30:42.498Z,6.81
2023-02-25T02:31:42.472Z,6.81
2023-02-25T02:32:42.414Z,6.88
2023-02-25T02:33:42.298Z,6.78
2023-02-25T02:34:42.304Z,6.87
2023-02-25T02:35:42.269Z,6.78
2023-02-25T02:36:42.290Z,6.82
2023-02-25T02:37:42.251Z,6.77
2023-02-25T02:38:42.240Z,6.77
2023-02-25T02:39:42.232Z,6.75
2023-02-25T02:40:42.253Z,6.81
2023-02-25T02:41:42.199Z,6.88
2023-02-25T02:42:42.231Z,6.87
2023-02-25T02:43:42.193Z,6.93
2023-02-25T02:44:42.178Z,6.74
2023-02-25T02:45:42.167Z,6.78
2023-02-25T02:46:42.156Z,6.79
2023-02-25T02:47:42.139Z,6.74
2023-02-25T02:48:42.149Z,6.70
2023-02-25T02:49:42.117Z,6.74
2023-02-25T02:50:42.124Z,6.78
2023-02-25T02:51:42.095Z,6.79
2023-02-25T02:52:42.086Z,6.52
2023-02-25T02:53:42.066Z,6.48
2023-02-25T02:54:42.072Z,6.56
2023-02-25T02:55:42.043Z,6.45
2023-02-25T02:56:42.077Z,6.54
2023-02-25T02:57:42.029Z,6.42
2023-02-25T02:58:42.010Z,6.42
2023-02-25T02:59:42.079Z,6.52
2023-02-25T03:00:42.196Z,6.46
2023-02-25T03:01:41.980Z,6.44
2023-02-25T03:02:42.005Z,6.56
2023-02-25T03:03:41.987Z,6.62
2023-02-25T03:04:41.956Z,6.67
2023-02-25T03:05:41.957Z,6.66
2023-02-25T03:06:41.919Z,6.63
2023-02-25T03:07:41.916Z,6.62
2023-02-25T03:08:41.908Z,6.60
2023-02-25T03:09:41.890Z,6.63
2023-02-25T03:10:41.893Z,6.60
2023-02-25T03:11:41.889Z,6.66
2023-02-25T03:12:41.859Z,6.77
2023-02-25T03:13:41.863Z,6.75
2023-02-25T03:14:41.861Z,6.66
2023-02-25T03:15:41.818Z,6.62
2023-02-25T03:16:41.850Z,6.63
2023-02-25T03:17:41.817Z,6.77
2023-02-25T03:18:41.839Z,6.82
2023-02-25T03:19:41.788Z,6.75
2023-02-25T03:20:41.791Z,6.75
2023-02-25T03:21:41.780Z,6.79
2023-02-25T03:22:41.761Z,6.79
2023-02-25T03:23:41.755Z,6.70
2023-02-25T03:24:41.735Z,6.60
2023-02-25T03:25:41.721Z,6.60
2023-02-25T03:26:41.722Z,6.60
2023-02-25T03:27:41.697Z,6.67
2023-02-25T03:28:41.742Z,6.66
2023-02-25T03:29:41.681Z,6.75
2023-02-25T03:30:41.752Z,6.70
2023-02-25T03:31:41.772Z,6.75
2023-02-25T03:32:41.784Z,6.74
2023-02-25T03:33:41.650Z,6.74
2023-02-25T03:34:41.653Z,6.78
2023-02-25T03:35:41.618Z,6.63
2023-02-25T03:36:41.609Z,6.63
2023-02-25T03:37:41.586Z,6.66
2023-02-25T03:38:41.589Z,6.66
2023-02-25T03:39:41.573Z,6.72
2023-02-25T03:40:41.584Z,6.78
2023-02-25T03:41:41.546Z,6.74
2023-02-25T03:42:41.545Z,6.77
2023-02-25T03:43:41.526Z,6.79
2023-02-25T03:44:41.519Z,6.88
2023-02-25T03:45:41.568Z,6.70
2023-02-25T03:46:41.559Z,6.74
2023-02-25T03:47:41.517Z,6.81
2023-02-25T03:48:41.475Z,6.79
2023-02-25T03:49:41.460Z,6.85
2023-02-25T03:50:41.452Z,6.82
2023-02-25T03:51:41.443Z,6.82
2023-02-25T03:52:41.450Z,6.70
2023-02-25T03:53:41.417Z,6.69
2023-02-25T03:54:41.420Z,6.75
2023-02-25T03:55:41.394Z,6.60
2023-02-25T03:56:41.383Z,6.62
2023-02-25T03:57:41.379Z,6.52
2023-02-25T03:58:41.384Z,6.54
2023-02-25T03:59:41.376Z,6.48
2023-02-25T04:00:41.338Z,6.56
2023-02-25T04:01:41.325Z,6.42
2023-02-25T04:02:41.339Z,6.41
2023-02-25T04:03:41.298Z,6.39
2023-02-25T04:04:41.360Z,6.31
2023-02-25T04:05:41.283Z,6.24
2023-02-25T04:06:41.276Z,6.27
2023-02-25T04:07:41.263Z,6.35
2023-02-25T04:08:41.298Z,6.20
2023-02-25T04:09:41.256Z,6.19
2023-02-25T04:10:41.220Z,6.08
2023-02-25T04:11:41.219Z,6.02
2023-02-25T04:12:41.214Z,6.08
2023-02-25T04:13:41.196Z,6.19
2023-02-25T04:14:41.206Z,6.20
2023-02-25T04:15:41.204Z,6.22
2023-02-25T04:16:41.151Z,6.24
2023-02-25T04:17:41.145Z,6.24
2023-02-25T04:18:41.133Z,6.24
2023-02-25T04:19:41.117Z,6.22
2023-02-25T04:20:41.100Z,6.20
2023-02-25T04:21:41.110Z,6.09
2023-02-25T04:22:41.085Z,5.99
2023-02-25T04:23:41.076Z,6.05
2023-02-25T04:24:41.058Z,5.99
2023-02-25T04:25:41.052Z,6.01
2023-02-25T04:26:41.037Z,6.02
2023-02-25T04:27:41.047Z,6.02
2023-02-25T04:28:41.011Z,5.94
2023-02-25T04:29:41.006Z,5.86
2023-02-25T04:30:41.027Z,5.84
2023-02-25T04:31:41.324Z,5.91
2023-02-25T04:32:41.189Z,5.98
2023-02-25T04:33:40.961Z,5.97
2023-02-25T04:34:40.946Z,6.04
2023-02-25T04:35:40.937Z,6.05
2023-02-25T04:36:40.927Z,5.97
2023-02-25T04:37:40.916Z,5.98
2023-02-25T04:38:40.916Z,5.91
2023-02-25T04:39:40.895Z,5.91
2023-02-25T04:40:40.879Z,5.89
2023-02-25T04:41:40.865Z,5.83
2023-02-25T04:42:40.859Z,5.76
2023-02-25T04:43:40.845Z,5.73
2023-02-25T04:44:40.846Z,5.80
2023-02-25T04:45:40.828Z,5.87
2023-02-25T04:46:40.935Z,5.83
2023-02-25T04:47:40.805Z,5.87
2023-02-25T04:48:40.786Z,5.97
2023-02-25T04:49:40.797Z,5.90
2023-02-25T04:50:40.767Z,5.82
2023-02-25T04:51:40.755Z,5.73
2023-02-25T04:52:40.744Z,5.79
2023-02-25T04:53:40.738Z,5.82
2023-02-25T04:54:40.755Z,5.82
2023-02-25T04:55:40.723Z,5.75
2023-02-25T04:56:40.701Z,5.86
2023-02-25T04:57:40.686Z,5.84
2023-02-25T04:58:40.680Z,5.82
2023-02-25T04:59:40.674Z,5.87
2023-02-25T05:00:40.685Z,5.91
2023-02-25T05:01:40.676Z,5.94
2023-02-25T05:02:40.635Z,5.99
2023-02-25T05:03:40.729Z,6.05
2023-02-25T05:04:40.686Z,6.07
2023-02-25T05:05:40.605Z,6.05
2023-02-25T05:06:40.606Z,6.08
2023-02-25T05:07:40.591Z,6.14
2023-02-25T05:08:40.566Z,6.09
2023-02-25T05:09:40.566Z,6.05
2023-02-25T05:10:40.565Z,6.11
2023-02-25T05:11:40.538Z,6.09
2023-02-25T05:12:40.539Z,6.20
2023-02-25T05:13:40.517Z,6.19
2023-02-25T05:14:40.545Z,6.17
2023-02-25T05:15:40.503Z,6.22
2023-02-25T05:16:40.561Z,6.24
2023-02-25T05:17:40.467Z,6.22
2023-02-25T05:18:40.476Z,6.22
2023-02-25T05:19:40.457Z,6.26
2023-02-25T05:20:40.528Z,6.20
2023-02-25T05:21:40.428Z,6.22
2023-02-25T05:22:40.461Z,6.20
2023-02-25T05:23:40.414Z,6.27
2023-02-25T05:24:40.396Z,6.31
2023-02-25T05:25:40.377Z,6.28
2023-02-25T05:26:40.365Z,6.33
2023-02-25T05:27:40.379Z,6.30
2023-02-25T05:28:40.340Z,6.35
2023-02-25T05:29:40.447Z,6.36
2023-02-25T05:30:40.317Z,6.38
2023-02-25T05:31:40.505Z,6.24
2023-02-25T05:32:40.423Z,6.31
2023-02-25T05:33:40.306Z,6.31
2023-02-25T05:34:40.283Z,6.38
2023-02-25T05:35:40.294Z,6.41
2023-02-25T05:36:40.259Z,6.33
2023-02-25T05:37:40.296Z,6.33
2023-02-25T05:38:40.239Z,6.33
2023-02-25T05:39:40.215Z,6.28
2023-02-25T05:40:40.217Z,6.30
2023-02-25T05:41:40.226Z,6.28
2023-02-25T05:42:40.187Z,6.28
2023-02-25T05:43:40.199Z,6.36
2023-02-25T05:44:40.183Z,6.31
2023-02-25T05:45:40.160Z,6.28
2023-02-25T05:46:40.247Z,6.30
2023-02-25T05:47:40.136Z,6.30
2023-02-25T05:48:40.117Z,6.26
2023-02-25T05:49:40.115Z,6.20
2023-02-25T05:50:40.094Z,6.17
2023-02-25T05:51:40.083Z,6.16
2023-02-25T05:52:40.107Z,6.01
2023-02-25T05:53:40.077Z,6.09
2023-02-25T05:54:40.057Z,6.09
2023-02-25T05:55:40.040Z,6.11
2023-02-25T05:56:40.031Z,6.08
2023-02-25T05:57:40.048Z,6.07
2023-02-25T05:58:40.020Z,5.98
2023-02-25T05:59:39.995Z,5.98
2023-02-25T06:00:40.003Z,6.01
2023-02-25T06:01:40.054Z,5.98
2023-02-25T06:02:39.962Z,5.98
2023-02-25T06:03:39.949Z,5.98
2023-02-25T06:04:39.965Z,5.99
2023-02-25T06:05:39.930Z,6.01
2023-02-25T06:06:39.911Z,6.04
2023-02-25T06:07:39.901Z,5.99
2023-02-25T06:08:39.889Z,6.07
2023-02-25T06:09:39.879Z,6.07
2023-02-25T06:10:39.886Z,6.11
2023-02-25T06:11:39.859Z,6.08
2023-02-25T06:12:39.839Z,6.09
2023-02-25T06:13:39.838Z,5.97
2023-02-25T06:14:39.818Z,5.91
2023-02-25T06:15:46.869Z,6.04
2023-02-25T06:16:39.820Z,5.98
2023-02-25T06:17:39.790Z,5.99
2023-02-25T06:18:39.790Z,5.94
2023-02-25T06:19:39.769Z,5.94
2023-02-25T06:20:39.761Z,6.02
2023-02-25T06:21:39.765Z,5.98
2023-02-25T06:22:39.730Z,6.05
2023-02-25T06:23:39.718Z,6.02
2023-02-25T06:24:39.728Z,6.01
2023-02-25T06:25:39.700Z,5.98
2023-02-25T06:26:39.697Z,6.01
2023-02-25T06:27:39.703Z,6.02
2023-02-25T06:28:39.669Z,6.04
2023-02-25T06:29:39.657Z,6.12
2023-02-25T06:30:39.675Z,6.08
2023-02-25T06:31:39.698Z,6.02
2023-02-25T06:32:39.674Z,5.93
2023-02-25T06:33:39.639Z,5.98
2023-02-25T06:34:39.601Z,6.07
2023-02-25T06:35:39.588Z,6.08
2023-02-25T06:36:39.579Z,6.08
2023-02-25T06:37:39.568Z,6.05
2023-02-25T06:38:39.556Z,6.08
2023-02-25T06:39:39.558Z,6.11
2023-02-25T06:40:39.527Z,6.08
2023-02-25T06:41:39.518Z,6.09
2023-02-25T06:42:39.512Z,6.17
2023-02-25T06:43:39.498Z,6.19
2023-02-25T06:44:39.487Z,6.14
2023-02-25T06:45:39.756Z,6.24
2023-02-25T06:46:39.492Z,6.22
2023-02-25T06:47:39.457Z,6.27
2023-02-25T06:48:39.438Z,6.28
2023-02-25T06:49:39.437Z,6.27
2023-02-25T06:50:39.442Z,6.24
2023-02-25T06:51:39.411Z,6.35
2023-02-25T06:52:39.417Z,6.39
2023-02-25T06:53:39.389Z,6.38
2023-02-25T06:54:39.377Z,6.45
2023-02-25T06:55:39.376Z,6.48
2023-02-25T06:56:39.367Z,6.48
2023-02-25T06:57:39.385Z,6.52
2023-02-25T06:58:39.329Z,6.66
2023-02-25T06:59:39.317Z,6.74
2023-02-25T07:00:39.310Z,6.84
2023-02-25T07:01:39.371Z,6.82
2023-02-25T07:02:39.298Z,6.92
2023-02-25T07:03:39.296Z,6.78
2023-02-25T07:04:39.318Z,6.92
2023-02-25T07:05:39.255Z,7.00
2023-02-25T07:06:39.240Z,6.95
2023-02-25T07:07:39.240Z,6.96
2023-02-25T07:08:39.245Z,7.03
2023-02-25T07:09:39.207Z,7.15
2023-02-25T07:10:39.194Z,7.18
2023-02-25T07:11:39.187Z,7.17
2023-02-25T07:12:39.174Z,7.15
2023-02-25T07:13:39.172Z,7.21
2023-02-25T07:14:39.162Z,7.24
2023-02-25T07:15:39.213Z,7.28
2023-02-25T07:16:39.129Z,7.18
2023-02-25T07:17:39.125Z,7.11
2023-02-25T07:18:39.103Z,7.15
2023-02-25T07:19:39.103Z,7.13
2023-02-25T07:20:39.086Z,7.10
2023-02-25T07:21:39.073Z,7.14
2023-02-25T07:22:39.065Z,7.07
2023-02-25T07:23:39.053Z,7.21
2023-02-25T07:24:39.041Z,7.20
2023-02-25T07:25:39.043Z,7.15
2023-02-25T07:26:39.015Z,7.15
2023-02-25T07:27:39.003Z,7.18
2023-02-25T07:28:38.993Z,7.29
2023-02-25T07:29:38.991Z,7.38
2023-02-25T07:30:39.043Z,7.40
2023-02-25T07:31:39.108Z,7.36
2023-02-25T07:32:39.039Z,7.38
2023-02-25T07:33:38.950Z,7.33
2023-02-25T07:34:38.923Z,7.43
2023-02-25T07:35:38.923Z,7.54
2023-02-25T07:36:39.026Z,7.56
2023-02-25T07:37:38.903Z,7.50
2023-02-25T07:38:38.908Z,7.50
2023-02-25T07:39:38.897Z,7.54
2023-02-25T07:40:38.865Z,7.60
2023-02-25T07:41:38.865Z,7.47
2023-02-25T07:42:38.865Z,7.40
2023-02-25T07:43:38.836Z,7.51
2023-02-25T07:44:38.842Z,7.53
2023-02-25T07:45:38.827Z,7.61
2023-02-25T07:46:38.817Z,7.54
2023-02-25T07:47:38.795Z,7.53
2023-02-25T07:48:38.795Z,7.36
2023-02-25T07:49:38.766Z,7.48
2023-02-25T07:50:38.756Z,7.56
2023-02-25T07:51:38.749Z,7.63
2023-02-25T07:52:38.736Z,7.57
2023-02-25T07:53:38.734Z,7.58
2023-02-25T07:54:38.737Z,7.54
2023-02-25T07:55:38.710Z,7.23
2023-02-25T07:56:38.707Z,7.18
2023-02-25T07:57:38.686Z,7.20
2023-02-25T07:58:38.706Z,7.20
2023-02-25T07:59:38.667Z,7.32
2023-02-25T08:00:38.667Z,7.33
2023-02-25T08:01:38.666Z,7.33
2023-02-25T08:02:38.699Z,7.33
2023-02-25T08:03:38.626Z,7.38
2023-02-25T08:04:38.649Z,7.28
2023-02-25T08:05:38.607Z,7.35
2023-02-25T08:06:38.606Z,7.42
2023-02-25T08:07:38.577Z,7.40
2023-02-25T08:08:38.568Z,7.39
2023-02-25T08:09:38.556Z,7.40
2023-02-25T08:10:38.547Z,7.50
2023-02-25T08:11:38.526Z,7.54
2023-02-25T08:12:38.538Z,7.60
2023-02-25T08:13:38.525Z,7.67
2023-02-25T08:14:38.500Z,7.66
2023-02-25T08:15:38.534Z,7.75
2023-02-25T08:16:38.488Z,7.91
2023-02-25T08:17:38.467Z,8.10
2023-02-25T08:18:38.474Z,8.12
2023-02-25T08:19:38.446Z,8.12
2023-02-25T08:20:38.434Z,8.20
2023-02-25T08:21:38.428Z,8.38
2023-02-25T08:22:38.421Z,8.48
2023-02-25T08:23:38.408Z,8.64
2023-02-25T08:24:38.405Z,8.81
2023-02-25T08:25:38.384Z,8.87
2023-02-25T08:26:38.367Z,8.87
2023-02-25T08:27:38.376Z,9.74
2023-02-25T08:28:38.353Z,10.48
2023-02-25T08:29:38.358Z,10.99
2023-02-25T08:30:38.360Z,11.83
2023-02-25T08:31:38.478Z,12.47
2023-02-25T08:32:38.485Z,12.76
2023-02-25T08:33:38.287Z,13.28
2023-02-25T08:34:38.286Z,13.59
2023-02-25T08:35:38.288Z,13.59
2023-02-25T08:36:38.268Z,13.53
2023-02-25T08:37:38.248Z,13.05
2023-02-25T08:38:38.263Z,12.62
2023-02-25T08:39:38.228Z,12.98
2023-02-25T08:40:38.208Z,12.87
2023-02-25T08:41:38.211Z,13.08
2023-02-25T08:42:38.197Z,12.97
2023-02-25T08:43:38.187Z,12.83
2023-02-25T08:44:38.173Z,12.37
2023-02-25T08:45:38.157Z,12.32
2023-02-25T08:46:38.227Z,12.20
2023-02-25T08:47:38.213Z,11.88
2023-02-25T08:48:38.136Z,11.27
2023-02-25T08:49:38.131Z,10.57
2023-02-25T08:50:38.101Z,10.35
2023-02-25T08:51:38.095Z,10.12
2023-02-25T08:52:39.259Z,10.10
2023-02-25T08:53:38.054Z,10.17
2023-02-25T08:54:38.054Z,10.28
2023-02-25T08:55:38.034Z,10.63
2023-02-25T08:56:38.034Z,11.18
2023-02-25T08:57:38.025Z,11.51
2023-02-25T08:58:38.026Z,11.78
2023-02-25T08:59:38.014Z,12.02
2023-02-25T09:00:38.034Z,11.84
2023-02-25T09:01:37.973Z,11.48
2023-02-25T09:02:37.964Z,11.25
2023-02-25T09:03:37.952Z,11.07
2023-02-25T09:04:37.997Z,10.63
2023-02-25T09:05:37.945Z,10.46
2023-02-25T09:06:37.913Z,10.46
2023-02-25T09:07:37.914Z,11.00
2023-02-25T09:08:37.895Z,11.44
2023-02-25T09:09:37.897Z,11.88
2023-02-25T09:10:49.407Z,12.18
2023-02-25T09:11:38.853Z,12.50
2023-02-25T09:12:37.863Z,12.91
2023-02-25T09:13:37.832Z,13.00
2023-02-25T09:14:37.835Z,12.97
2023-02-25T09:15:37.822Z,13.60
2023-02-25T09:16:37.899Z,14.25
2023-02-25T09:17:37.784Z,14.51
2023-02-25T09:18:37.783Z,14.44
2023-02-25T09:19:37.765Z,14.07
2023-02-25T09:20:37.758Z,14.36
2023-02-25T09:21:37.765Z,14.44
2023-02-25T09:22:37.733Z,14.44
2023-02-25T09:23:37.733Z,13.83
2023-02-25T09:24:37.736Z,13.11
2023-02-25T09:25:37.705Z,12.55
2023-02-25T09:26:37.700Z,12.17
2023-02-25T09:27:37.696Z,11.59
2023-02-25T09:28:37.672Z,11.33
2023-02-25T09:29:37.658Z,11.02
2023-02-25T09:30:37.649Z,11.02
2023-02-25T09:31:38.011Z,10.84
2023-02-25T09:32:37.774Z,10.60
2023-02-25T09:33:37.623Z,10.53
2023-02-25T09:34:37.610Z,10.46
2023-02-25T09:35:37.589Z,10.30
2023-02-25T09:36:37.598Z,10.20
2023-02-25T09:37:37.565Z,10.20
2023-02-25T09:38:37.595Z,10.13
2023-02-25T09:39:37.578Z,10.04
2023-02-25T09:40:37.540Z,10.19
2023-02-25T09:41:37.523Z,10.30
2023-02-25T09:42:37.506Z,10.20
2023-02-25T09:43:37.501Z,10.04
2023-02-25T09:44:37.508Z,10.05
2023-02-25T09:45:37.522Z,9.84
2023-02-25T09:46:37.470Z,9.61
2023-02-25T09:47:37.479Z,9.69
2023-02-25T09:48:37.448Z,9.51
2023-02-25T09:49:37.437Z,9.44
2023-02-25T09:50:37.436Z,9.58
2023-02-25T09:51:37.406Z,9.72
2023-02-25T09:52:37.401Z,9.82
2023-02-25T09:53:37.406Z,9.91
2023-02-25T09:54:37.400Z,9.91
2023-02-25T09:55:37.362Z,10.05
2023-02-25T09:56:37.368Z,10.10
2023-02-25T09:57:37.338Z,10.10
2023-02-25T09:58:37.337Z,10.15
2023-02-25T09:59:37.332Z,10.28
2023-02-25T10:00:37.339Z,10.15
2023-02-25T10:01:37.302Z,10.01
2023-02-25T10:02:37.414Z,9.91
2023-02-25T10:03:37.280Z,9.68
2023-02-25T10:04:37.270Z,9.41
2023-02-25T10:05:37.252Z,9.41
2023-02-25T10:06:37.261Z,9.22
2023-02-25T10:07:37.250Z,9.23
2023-02-25T10:08:37.230Z,9.18
2023-02-25T10:09:37.213Z,9.32
2023-02-25T10:10:37.211Z,9.21
2023-02-25T10:11:37.191Z,9.29
2023-02-25T10:12:37.183Z,9.46
2023-02-25T10:13:37.181Z,9.66
2023-02-25T10:14:37.162Z,9.64
2023-02-25T10:15:37.146Z,9.69
2023-02-25T10:16:37.174Z,9.89
2023-02-25T10:17:37.130Z,10.22
2023-02-25T10:18:37.126Z,10.40
2023-02-25T10:19:37.148Z,10.49
2023-02-25T10:20:37.095Z,10.49
2023-02-25T10:21:37.936Z,10.26
2023-02-25T10:22:37.093Z,10.12
2023-02-25T10:23:37.061Z,9.94
2023-02-25T10:24:37.058Z,9.68
2023-02-25T10:25:37.053Z,9.84
2023-02-25T10:26:37.021Z,9.65
2023-02-25T10:27:37.013Z,9.69
2023-02-25T10:28:37.007Z,9.82
2023-02-25T10:29:36.992Z,9.79
2023-02-25T10:30:37.070Z,9.74
2023-02-25T10:31:37.083Z,9.47
2023-02-25T10:32:37.012Z,9.29
2023-02-25T10:33:37.036Z,9.19
2023-02-25T10:34:36.948Z,9.10
2023-02-25T10:35:36.930Z,8.81
2023-02-25T10:36:36.909Z,8.64
2023-02-25T10:37:36.920Z,8.48
2023-02-25T10:38:36.911Z,8.27
2023-02-25T10:39:36.889Z,7.87
2023-02-25T10:40:36.870Z,7.60
2023-02-25T10:41:36.849Z,7.35
2023-02-25T10:42:36.869Z,6.63
2023-02-25T10:43:36.833Z,6.20
2023-02-25T10:44:36.823Z,5.83
2023-02-25T10:45:36.813Z,5.71
2023-02-25T10:46:36.834Z,5.47
2023-02-25T10:47:36.808Z,5.47
2023-02-25T10:48:36.813Z,5.51
2023-02-25T10:49:36.770Z,5.69
2023-02-25T10:50:45.329Z,5.83
2023-02-25T10:51:37.739Z,5.84
2023-02-25T10:52:36.740Z,5.99
2023-02-25T10:53:36.732Z,6.01
2023-02-25T10:54:36.735Z,6.16
2023-02-25T10:55:36.698Z,6.17
2023-02-25T10:56:36.699Z,6.30
2023-02-25T10:57:36.689Z,6.51
2023-02-25T10:58:36.732Z,6.64
2023-02-25T10:59:36.659Z,6.75
2023-02-25T11:00:36.673Z,6.99
2023-02-25T11:01:36.714Z,7.21
2023-02-25T11:02:36.643Z,7.25
2023-02-25T11:03:36.618Z,7.20
2023-02-25T11:04:36.622Z,7.11
2023-02-25T11:05:36.608Z,6.95
2023-02-25T11:06:36.594Z,7.03
2023-02-25T11:07:36.568Z,7.15
2023-02-25T11:08:36.572Z,7.18
2023-02-25T11:09:36.549Z,7.10
2023-02-25T11:10:36.539Z,7.14
2023-02-25T11:11:36.548Z,7.23
2023-02-25T11:12:36.518Z,7.35
2023-02-25T11:13:36.510Z,7.28
2023-02-25T11:14:36.498Z,7.14
2023-02-25T11:15:46.262Z,7.31
2023-02-25T11:16:37.566Z,7.33
2023-02-25T11:17:36.460Z,7.42
2023-02-25T11:18:36.469Z,7.54
2023-02-25T11:19:36.438Z,7.66
2023-02-25T11:20:36.428Z,7.50
2023-02-25T11:21:36.431Z,7.32
2023-02-25T11:22:36.429Z,7.45
2023-02-25T11:23:36.408Z,7.51
2023-02-25T11:24:36.388Z,7.70
2023-02-25T11:25:36.380Z,7.91
2023-02-25T11:26:36.378Z,8.10
2023-02-25T11:27:38.701Z,8.28
2023-02-25T11:28:36.349Z,8.28
2023-02-25T11:29:36.362Z,8.31
2023-02-25T11:30:36.333Z,8.19
2023-02-25T11:31:36.428Z,8.05
2023-02-25T11:32:36.434Z,8.05
2023-02-25T11:33:36.309Z,8.09
2023-02-25T11:34:36.290Z,8.20
2023-02-25T11:35:36.285Z,8.28
2023-02-25T11:36:36.267Z,8.42
2023-02-25T11:37:36.470Z,8.41
2023-02-25T11:38:36.246Z,8.38
2023-02-25T11:39:36.246Z,8.48
2023-02-25T11:40:36.216Z,8.61
2023-02-25T11:41:36.207Z,8.56
2023-02-25T11:42:36.195Z,8.71
2023-02-25T11:43:36.185Z,8.81
2023-02-25T11:44:36.175Z,8.87
2023-02-25T11:45:36.177Z,9.08
2023-02-25T11:46:36.288Z,9.19
2023-02-25T11:47:36.135Z,9.18
2023-02-25T11:48:36.127Z,9.26
2023-02-25T11:49:36.118Z,9.21
2023-02-25T11:50:36.101Z,9.23
2023-02-25T11:51:36.095Z,9.06
2023-02-25T11:52:36.076Z,9.11
2023-02-25T11:53:36.091Z,9.00
2023-02-25T11:54:36.074Z,9.16
2023-02-25T11:55:36.034Z,9.43
2023-02-25T11:56:36.047Z,9.58
2023-02-25T11:57:36.019Z,9.79
2023-02-25T11:58:36.003Z,9.87
2023-02-25T11:59:35.994Z,10.23
2023-02-25T12:00:35.982Z,10.26
2023-02-25T12:01:35.963Z,10.59
2023-02-25T12:02:35.984Z,10.57
2023-02-25T12:03:35.946Z,10.30
2023-02-25T12:04:35.942Z,10.16
2023-02-25T12:05:35.930Z,10.12
2023-02-25T12:06:35.923Z,10.23
2023-02-25T12:07:35.923Z,10.35
2023-02-25T12:08:35.903Z,10.33
2023-02-25T12:09:35.873Z,10.16
2023-02-25T12:10:35.878Z,10.10
2023-02-25T12:11:35.859Z,9.97
2023-02-25T12:12:35.848Z,9.92
2023-02-25T12:13:35.895Z,10.10
2023-02-25T12:14:35.822Z,10.05
2023-02-25T12:15:35.815Z,10.23
2023-02-25T12:16:35.873Z,10.41
2023-02-25T12:17:35.792Z,10.41
2023-02-25T12:18:35.816Z,10.37
2023-02-25T12:19:35.782Z,10.49
2023-02-25T12:20:35.761Z,10.51
2023-02-25T12:21:35.746Z,10.49
2023-02-25T12:22:35.733Z,10.61
2023-02-25T12:23:35.721Z,10.49
2023-02-25T12:24:35.713Z,10.40
2023-02-25T12:25:35.714Z,10.23
2023-02-25T12:26:35.693Z,10.40
2023-02-25T12:27:35.687Z,10.26
2023-02-25T12:28:35.664Z,9.92
2023-02-25T12:29:35.652Z,9.87
2023-02-25T12:30:35.664Z,10.16
2023-02-25T12:31:35.676Z,10.53
2023-02-25T12:32:35.665Z,10.71
2023-02-25T12:33:35.613Z,10.64
2023-02-25T12:34:35.604Z,10.40
2023-02-25T12:35:35.613Z,10.37
2023-02-25T12:36:35.603Z,10.33
2023-02-25T12:37:35.574Z,10.41
2023-02-25T12:38:35.557Z,10.68
2023-02-25T12:39:35.553Z,10.81
2023-02-25T12:40:35.543Z,10.71
2023-02-25T12:41:35.523Z,10.72
2023-02-25T12:42:35.542Z,10.96
2023-02-25T12:43:35.520Z,11.12
2023-02-25T12:44:35.507Z,11.32
2023-02-25T12:45:35.528Z,11.40
2023-02-25T12:46:35.478Z,11.32
2023-02-25T12:47:35.473Z,11.68
2023-02-25T12:48:35.761Z,11.88
2023-02-25T12:49:35.467Z,12.04
2023-02-25T12:50:35.425Z,11.75
2023-02-25T12:51:35.452Z,11.55
2023-02-25T12:52:35.489Z,11.22
2023-02-25T12:53:35.386Z,11.07
2023-02-25T12:54:35.405Z,11.08
2023-02-25T12:55:35.479Z,10.79
2023-02-25T12:56:35.353Z,10.35
2023-02-25T12:57:35.395Z,10.44
2023-02-25T12:58:35.341Z,10.33
2023-02-25T12:59:35.325Z,10.30
2023-02-25T13:00:35.334Z,10.67
2023-02-25T13:01:35.305Z,10.96
2023-02-25T13:02:35.299Z,11.44
2023-02-25T13:03:35.323Z,11.40
2023-02-25T13:04:35.274Z,10.64
2023-02-25T13:05:35.258Z,10.04
2023-02-25T13:06:35.282Z,9.06
2023-02-25T13:07:35.246Z,8.71
2023-02-25T13:08:35.222Z,8.49
2023-02-25T13:09:35.219Z,8.33
2023-02-25T13:10:35.195Z,8.10
2023-02-25T13:11:48.212Z,7.85
2023-02-25T13:12:36.197Z,7.97
2023-02-25T13:13:35.174Z,7.87